Time;durP1;ratioP1;P1;durP2;ratioP2;P2;SDS_P1;SDS_P2;PMS_P1;PMS_P2;Temp;Humidity;BMP_temperature;BMP_pressure;BME280_temperature;BME280_humidity;BME280_pressure;Samples;Min_cycle;Max_cycle;Signal;HPM_P1;HPM_P2
2021/05/11 00:00:52;;;;;;;1.77;0.55;;;11.40;99.90;;;;;;4963414;28;20023;-72
2021/05/11 00:03:18;;;;;;;1.52;0.70;;;11.40;99.90;;;;;;4966957;28;20031;-67
2021/05/11 00:05:43;;;;;;;5.38;0.70;;;11.20;99.90;;;;;;4960595;28;20137;-72
2021/05/11 00:08:09;;;;;;;2.40;0.57;;;11.00;99.90;;;;;;4958480;28;20027;-70
2021/05/11 00:10:34;;;;;;;7.00;0.80;;;11.00;99.90;;;;;;4956967;28;20047;-71
2021/05/11 00:13:00;;;;;;;2.45;0.75;;;11.00;99.90;;;;;;4955518;28;20028;-72
2021/05/11 00:15:26;;;;;;;4.65;0.80;;;11.10;99.90;;;;;;4962678;28;20110;-67
2021/05/11 00:17:52;;;;;;;2.05;0.50;;;11.10;99.90;;;;;;4964725;28;20019;-72
2021/05/11 00:20:19;;;;;;;0.90;0.50;;;11.20;99.90;;;;;;4960089;28;20098;-71
2021/05/11 00:22:45;;;;;;;2.55;0.50;;;11.10;99.90;;;;;;4959470;28;20500;-67
2021/05/11 00:25:11;;;;;;;3.35;0.50;;;11.10;99.90;;;;;;4959900;28;20078;-73
2021/05/11 00:27:37;;;;;;;1.77;0.40;;;11.10;99.90;;;;;;4960428;28;20688;-73
2021/05/11 00:30:04;;;;;;;0.73;0.45;;;11.20;99.90;;;;;;4966328;28;20098;-68
2021/05/11 00:32:30;;;;;;;4.50;0.43;;;11.10;99.90;;;;;;4960014;28;20031;-72
2021/05/11 00:34:56;;;;;;;0.70;0.45;;;11.20;99.90;;;;;;4959372;28;20485;-73
2021/05/11 00:37:21;;;;;;;0.60;0.45;;;11.20;99.90;;;;;;4961235;28;20074;-72
2021/05/11 00:39:47;;;;;;;3.10;0.68;;;11.20;99.90;;;;;;4955262;28;20419;-68
2021/05/11 00:42:13;;;;;;;3.67;0.60;;;11.20;99.90;;;;;;4963863;28;20019;-73
2021/05/11 00:44:38;;;;;;;2.17;0.43;;;11.40;99.90;;;;;;4956776;28;20404;-72
2021/05/11 00:47:04;;;;;;;2.08;0.43;;;11.50;99.90;;;;;;4959138;28;20462;-73
2021/05/11 00:49:33;;;;;;;4.22;0.47;;;11.30;99.90;;;;;;4957568;28;20028;-72
2021/05/11 00:52:02;;;;;;;1.75;0.50;;;11.40;99.90;;;;;;4963375;28;20113;-73
2021/05/11 00:54:28;;;;;;;0.98;0.28;;;11.40;99.90;;;;;;4955625;28;20039;-73
2021/05/11 00:56:54;;;;;;;0.70;0.35;;;11.40;99.90;;;;;;4956918;28;20026;-72
2021/05/11 00:59:28;;;;;;;1.05;0.30;;;11.30;99.90;;;;;;4956257;28;20557;-73
2021/05/11 01:01:59;;;;;;;1.15;0.30;;;11.50;99.90;;;;;;4964074;28;20019;-74
2021/05/11 01:04:26;;;;;;;1.40;0.68;;;11.70;99.90;;;;;;4956092;28;20126;-73
2021/05/11 01:06:54;;;;;;;0.82;0.30;;;11.70;99.90;;;;;;4958695;28;20043;-73
2021/05/11 01:09:21;;;;;;;1.55;0.38;;;11.60;99.90;;;;;;4959455;28;20046;-70
2021/05/11 01:11:47;;;;;;;1.98;0.40;;;11.50;99.90;;;;;;4956019;28;20047;-73
2021/05/11 01:14:13;;;;;;;0.60;0.38;;;11.60;99.90;;;;;;4956177;28;20058;-73
2021/05/11 01:16:40;;;;;;;1.08;0.40;;;11.50;99.90;;;;;;4961136;28;20082;-72
2021/05/11 01:26:47;;;;;;;4.10;0.65;;;11.60;99.90;;;;;;4956427;28;20034;-73
2021/05/11 02:23:03;;;;;;;0.80;0.60;;;11.30;99.90;;;;;;4966037;28;20038;-73
2021/05/11 02:25:29;;;;;;;2.15;0.68;;;11.30;99.90;;;;;;4961916;28;20057;-72
2021/05/11 02:27:55;;;;;;;1.80;0.68;;;11.20;99.90;;;;;;4963754;28;20412;-74
2021/05/11 02:30:21;;;;;;;1.35;0.50;;;11.30;99.90;;;;;;4961043;28;20030;-72
2021/05/11 02:32:47;;;;;;;0.88;0.45;;;11.50;99.90;;;;;;4962866;28;20613;-67
2021/05/11 02:35:15;;;;;;;3.08;0.63;;;11.50;99.90;;;;;;4961072;28;20037;-72
2021/05/11 02:37:42;;;;;;;1.73;1.00;;;11.30;99.90;;;;;;4960439;28;20026;-73
2021/05/11 02:40:09;;;;;;;3.28;1.08;;;11.20;99.90;;;;;;4958684;28;20642;-67
2021/05/11 02:42:36;;;;;;;1.38;0.57;;;11.10;99.90;;;;;;4959704;28;20030;-72
2021/05/11 02:45:05;;;;;;;1.55;0.57;;;11.30;99.90;;;;;;4959545;28;20106;-72
2021/05/11 02:47:31;;;;;;;3.22;0.75;;;11.40;99.90;;;;;;4965598;28;20042;-71
2021/05/11 02:50:03;;;;;;;3.28;0.90;;;11.20;99.90;;;;;;4961757;28;20391;-70
2021/05/11 02:52:29;;;;;;;1.05;0.70;;;11.10;99.90;;;;;;4961504;28;20038;-69
2021/05/11 02:54:54;;;;;;;1.25;0.60;;;11.10;99.90;;;;;;4958559;28;20048;-73
2021/05/11 02:57:20;;;;;;;1.35;0.63;;;11.10;99.90;;;;;;4962655;28;20057;-73
2021/05/11 02:59:45;;;;;;;1.23;0.80;;;10.70;99.90;;;;;;4959695;28;20049;-69
2021/05/11 03:02:11;;;;;;;1.83;0.70;;;10.80;99.90;;;;;;4964896;28;20042;-70
2021/05/11 03:04:37;;;;;;;2.78;0.95;;;11.00;99.90;;;;;;4958802;28;20027;-73
2021/05/11 03:07:03;;;;;;;4.10;0.80;;;10.80;99.90;;;;;;4961029;28;20083;-72
2021/05/11 03:09:28;;;;;;;1.38;0.50;;;10.70;99.90;;;;;;4959131;28;20400;-69
2021/05/11 03:11:55;;;;;;;1.42;0.80;;;10.90;99.90;;;;;;4960001;28;20054;-73
2021/05/11 03:14:21;;;;;;;4.80;0.75;;;10.90;99.90;;;;;;4965646;28;20034;-73
2021/05/11 03:16:48;;;;;;;3.03;0.70;;;10.90;99.90;;;;;;4965131;28;20081;-69
2021/05/11 03:19:14;;;;;;;1.33;0.70;;;11.00;99.90;;;;;;4957284;28;20097;-68
2021/05/11 03:21:39;;;;;;;2.15;0.82;;;10.80;99.90;;;;;;4963506;28;20039;-73
2021/05/11 03:24:07;;;;;;;1.25;0.60;;;10.80;99.90;;;;;;4962350;28;20029;-69
2021/05/11 03:26:33;;;;;;;2.13;0.80;;;10.70;99.90;;;;;;4956066;28;20061;-69
2021/05/11 03:28:59;;;;;;;2.35;0.70;;;10.90;99.90;;;;;;4958348;28;20449;-71
2021/05/11 03:31:24;;;;;;;3.67;0.70;;;10.80;99.90;;;;;;4963567;28;20032;-72
2021/05/11 03:33:50;;;;;;;2.70;0.65;;;10.90;99.90;;;;;;4959151;28;20031;-68
2021/05/11 03:36:16;;;;;;;3.33;0.90;;;11.00;99.90;;;;;;4959807;28;20090;-69
2021/05/11 03:38:43;;;;;;;2.40;0.68;;;10.80;99.90;;;;;;4961580;28;20081;-74
2021/05/11 03:41:09;;;;;;;2.17;0.70;;;10.80;99.90;;;;;;4960106;28;20027;-71
2021/05/11 03:43:45;;;;;;;1.52;0.88;;;10.80;99.90;;;;;;4959586;28;20034;-73
2021/05/11 03:46:11;;;;;;;5.47;0.60;;;10.80;99.90;;;;;;4962005;28;20030;-69
2021/05/11 03:48:36;;;;;;;2.00;0.90;;;10.80;99.90;;;;;;4955187;28;20121;-71
2021/05/11 03:51:06;;;;;;;5.63;1.00;;;11.00;99.90;;;;;;4960810;28;20114;-70
2021/05/11 03:53:35;;;;;;;1.95;0.80;;;11.20;99.90;;;;;;4956750;28;20082;-74
2021/05/11 03:56:01;;;;;;;1.13;0.50;;;11.00;99.90;;;;;;4955786;28;20043;-72
2021/05/11 03:58:27;;;;;;;1.95;0.70;;;11.10;99.90;;;;;;4959613;28;20026;-68
2021/05/11 04:00:53;;;;;;;2.05;0.82;;;11.10;99.90;;;;;;4959743;28;20019;-74
2021/05/11 04:03:19;;;;;;;2.45;0.70;;;11.10;99.90;;;;;;4958385;28;20526;-71
2021/05/11 04:05:47;;;;;;;1.58;0.60;;;11.00;99.90;;;;;;4962215;28;20067;-68
2021/05/11 04:11:09;;;;;;;3.88;0.75;;;11.10;99.90;;;;;;4955022;28;20587;-72
2021/05/11 04:14:10;;;;;;;1.35;0.50;;;11.10;99.90;;;;;;4957698;28;20026;-68
2021/05/11 04:16:38;;;;;;;1.23;0.60;;;11.20;99.90;;;;;;4960166;28;20089;-74
2021/05/11 04:19:04;;;;;;;1.48;0.95;;;11.10;99.90;;;;;;4956232;28;20066;-70
2021/05/11 04:21:30;;;;;;;1.55;0.57;;;11.20;99.90;;;;;;4958637;28;20023;-72
2021/05/11 04:23:56;;;;;;;1.17;0.60;;;11.20;99.90;;;;;;4956143;28;20078;-69
2021/05/11 04:26:23;;;;;;;3.88;0.70;;;11.20;99.90;;;;;;4955880;28;20466;-71
2021/05/11 04:28:50;;;;;;;0.85;0.45;;;11.20;99.90;;;;;;4962987;28;20456;-71
2021/05/11 04:31:17;;;;;;;2.70;0.85;;;11.30;99.90;;;;;;4959184;28;20406;-71
2021/05/11 04:33:43;;;;;;;4.63;1.05;;;10.80;99.90;;;;;;4956882;28;20081;-68
2021/05/11 04:36:09;;;;;;;1.02;0.68;;;11.20;99.90;;;;;;4958630;28;20038;-74
2021/05/11 04:38:36;;;;;;;3.38;0.60;;;11.10;99.90;;;;;;4956786;28;20030;-71
2021/05/11 04:41:02;;;;;;;1.17;0.50;;;11.20;99.90;;;;;;4960381;28;20530;-72
2021/05/11 04:43:30;;;;;;;3.63;0.75;;;11.40;99.90;;;;;;4954829;28;20035;-69
2021/05/11 04:48:40;;;;;;;2.70;0.75;;;11.30;99.90;;;;;;4963529;28;20403;-69
2021/05/11 04:51:06;;;;;;;3.72;0.70;;;11.20;99.90;;;;;;4962006;28;20039;-72
2021/05/11 04:53:32;;;;;;;2.88;0.60;;;11.30;99.90;;;;;;4956914;28;20102;-74
2021/05/11 04:55:58;;;;;;;4.05;0.80;;;11.40;99.90;;;;;;4962492;28;20066;-73
2021/05/11 04:58:23;;;;;;;2.75;0.73;;;11.10;99.90;;;;;;4958525;28;20054;-69
2021/05/11 05:00:50;;;;;;;4.63;0.80;;;11.20;99.90;;;;;;4964281;28;20069;-73
2021/05/11 05:03:25;;;;;;;3.25;0.93;;;11.20;99.90;;;;;;4959030;28;20034;-73
2021/05/11 05:05:50;;;;;;;5.30;1.08;;;11.40;99.90;;;;;;4962685;28;20567;-73
2021/05/11 05:08:16;;;;;;;2.13;1.20;;;11.40;99.90;;;;;;4960935;28;20062;-70
2021/05/11 05:10:42;;;;;;;6.72;0.88;;;11.30;99.90;;;;;;4962668;28;20130;-71
2021/05/11 05:13:07;;;;;;;3.85;1.40;;;11.00;99.90;;;;;;4977425;28;20035;-74
2021/05/11 05:15:33;;;;;;;3.78;0.77;;;11.10;99.90;;;;;;4966944;28;20066;-75
2021/05/11 05:17:59;;;;;;;3.45;1.10;;;11.30;99.90;;;;;;4967085;28;20034;-74
2021/05/11 05:20:25;;;;;;;2.88;1.15;;;11.40;99.90;;;;;;4963525;28;20066;-75
2021/05/11 05:22:50;;;;;;;2.42;0.80;;;11.30;99.90;;;;;;4962901;28;20511;-75
2021/05/11 05:25:20;;;;;;;5.45;1.20;;;11.50;99.90;;;;;;4968996;28;20029;-70
2021/05/11 05:27:57;;;;;;;3.13;0.98;;;11.30;99.90;;;;;;4968331;28;20027;-74
2021/05/11 05:30:24;;;;;;;4.43;1.05;;;11.20;99.90;;;;;;4964921;28;20085;-73
2021/05/11 05:32:54;;;;;;;1.83;0.90;;;11.20;99.90;;;;;;4962690;28;20059;-73
2021/05/11 05:35:19;;;;;;;2.58;0.93;;;11.20;99.90;;;;;;4960276;28;20041;-73
2021/05/11 05:37:45;;;;;;;3.20;1.10;;;11.30;99.90;;;;;;4967038;28;20031;-74
2021/05/11 05:40:13;;;;;;;1.85;0.85;;;11.30;99.90;;;;;;4974942;28;20137;-73
2021/05/11 05:42:38;;;;;;;8.77;0.95;;;11.30;99.90;;;;;;4965252;28;20027;-70
2021/05/11 05:45:04;;;;;;;5.18;0.95;;;11.30;99.90;;;;;;4963262;28;20031;-72
2021/05/11 05:47:30;;;;;;;4.68;1.00;;;12.00;99.90;;;;;;4962518;28;20019;-72
2021/05/11 05:50:06;;;;;;;5.82;1.23;;;11.70;99.90;;;;;;4960082;28;20042;-71
2021/05/11 05:52:37;;;;;;;3.35;0.95;;;11.60;99.90;;;;;;4965048;28;20027;-71
2021/05/11 05:55:03;;;;;;;6.50;0.90;;;11.60;99.90;;;;;;4956167;28;20023;-72
2021/05/11 05:57:29;;;;;;;4.88;1.40;;;11.60;99.90;;;;;;4967678;28;20031;-73
2021/05/11 05:59:55;;;;;;;3.38;1.13;;;11.30;99.90;;;;;;4968704;28;20035;-72
2021/05/11 06:02:23;;;;;;;5.07;1.25;;;11.40;99.90;;;;;;4964112;28;20035;-72
2021/05/11 06:04:48;;;;;;;3.85;1.10;;;11.50;99.90;;;;;;4954569;28;20039;-73
2021/05/11 06:07:15;;;;;;;3.28;0.80;;;11.20;99.90;;;;;;4966114;28;20034;-72
2021/05/11 06:09:41;;;;;;;2.15;1.30;;;11.20;99.90;;;;;;4971678;28;20488;-72
2021/05/11 06:12:12;;;;;;;5.65;1.15;;;11.20;99.90;;;;;;4964377;28;20047;-72
2021/05/11 06:19:46;;;;;;;5.38;1.45;;;11.60;99.90;;;;;;4953646;28;20062;-72
2021/05/11 06:22:13;;;;;;;5.43;1.55;;;11.60;99.90;;;;;;4967102;28;20033;-72
2021/05/11 06:24:40;;;;;;;4.13;2.15;;;11.70;99.90;;;;;;4970596;28;20596;-72
2021/05/11 06:27:07;;;;;;;6.63;1.63;;;11.60;99.90;;;;;;4960179;28;20065;-73
2021/05/11 06:29:36;;;;;;;2.40;1.45;;;11.70;99.90;;;;;;4955990;28;20630;-72
2021/05/11 06:32:03;;;;;;;2.88;1.40;;;11.70;99.90;;;;;;4963701;28;20174;-73
2021/05/11 06:34:29;;;;;;;2.47;1.20;;;11.80;99.90;;;;;;4963878;28;20045;-73
2021/05/11 06:36:54;;;;;;;3.47;1.33;;;11.70;99.90;;;;;;4964602;28;20392;-73
2021/05/11 06:39:20;;;;;;;3.10;1.30;;;11.70;99.90;;;;;;4964699;28;20043;-73
2021/05/11 06:41:49;;;;;;;2.78;1.27;;;11.60;99.90;;;;;;4963932;28;20022;-72
2021/05/11 06:53:17;;;;;;;4.95;1.85;;;11.60;99.90;;;;;;4961981;28;20035;-72
2021/05/11 06:55:14;;;;;;;3.17;1.45;;;11.50;99.90;;;;;;4949812;28;20043;-73
2021/05/11 06:57:40;;;;;;;3.28;1.73;;;11.50;99.90;;;;;;4962077;28;20508;-71
2021/05/11 07:00:06;;;;;;;4.95;2.10;;;11.40;99.90;;;;;;4961460;28;20039;-70
2021/05/11 07:02:32;;;;;;;6.75;1.70;;;11.30;99.90;;;;;;4960770;28;20027;-70
2021/05/11 07:04:58;;;;;;;4.40;1.67;;;11.30;99.90;;;;;;4959503;28;20035;-71
2021/05/11 07:07:24;;;;;;;6.28;1.90;;;11.40;99.90;;;;;;4956370;28;20093;-70
2021/05/11 07:10:17;;;;;;;5.13;2.03;;;11.30;99.90;;;;;;4960384;28;20035;-71
2021/05/11 07:15:21;;;;;;;4.85;2.38;;;11.20;99.90;;;;;;4962151;28;20073;-72
2021/05/11 07:17:46;;;;;;;9.07;2.30;;;11.30;99.90;;;;;;4962455;28;20038;-71
2021/05/11 07:20:12;;;;;;;7.22;2.38;;;11.20;99.90;;;;;;4960163;28;20073;-71
2021/05/11 07:22:38;;;;;;;12.45;2.53;;;11.20;99.90;;;;;;4962330;28;20023;-71
2021/05/11 07:25:08;;;;;;;9.13;2.08;;;11.30;99.90;;;;;;4960013;28;20118;-72
2021/05/11 07:30:29;;;;;;;10.80;1.63;;;11.00;99.90;;;;;;4943939;28;20515;-72
2021/05/11 07:32:54;;;;;;;6.05;1.50;;;10.80;99.90;;;;;;4960660;28;20038;-70
2021/05/11 07:35:20;;;;;;;5.43;1.50;;;10.80;99.90;;;;;;4963157;28;20035;-71
2021/05/11 07:37:46;;;;;;;2.38;1.20;;;10.80;99.90;;;;;;4960484;28;20420;-71
2021/05/11 07:40:12;;;;;;;4.53;1.40;;;10.70;99.90;;;;;;4964813;28;20089;-72
2021/05/11 07:42:38;;;;;;;5.15;1.35;;;10.70;99.90;;;;;;4963460;28;20034;-70
2021/05/11 07:45:05;;;;;;;2.08;0.90;;;10.70;99.90;;;;;;4961288;28;20027;-70
2021/05/11 07:47:57;;;;;;;4.82;0.88;;;10.80;99.90;;;;;;4962339;28;20153;-71
2021/05/11 08:17:36;;;;;;;0.98;0.40;;;10.80;99.90;;;;;;4967693;28;20069;-71
2021/05/11 08:28:40;;;;;;;2.40;0.47;;;10.80;99.90;;;;;;4906469;29;20084;-71
2021/05/11 08:31:06;;;;;;;0.52;0.30;;;10.70;99.90;;;;;;4938320;28;20039;-71
2021/05/11 08:33:32;;;;;;;1.13;0.30;;;10.60;99.90;;;;;;4964034;28;20038;-71
2021/05/11 08:35:58;;;;;;;0.98;0.50;;;10.60;99.90;;;;;;4955728;28;20031;-73
2021/05/11 08:38:24;;;;;;;2.45;0.50;;;10.60;99.90;;;;;;4960435;28;20023;-71
2021/05/11 08:40:50;;;;;;;1.20;0.43;;;10.50;99.90;;;;;;4957793;28;20407;-71
2021/05/11 08:43:30;;;;;;;1.13;0.50;;;10.60;99.90;;;;;;4965280;28;20019;-73
2021/05/11 08:45:59;;;;;;;1.05;0.50;;;10.70;99.90;;;;;;4962705;28;20165;-71
2021/05/11 08:48:25;;;;;;;2.90;0.90;;;10.60;99.90;;;;;;4964707;28;20562;-73
2021/05/11 08:51:06;;;;;;;2.38;1.00;;;10.60;99.90;;;;;;4960354;28;20034;-72
2021/05/11 09:05:39;;;;;;;1.27;0.70;;;10.40;99.90;;;;;;4965311;28;20063;-74
2021/05/11 09:27:21;;;;;;;4.57;0.80;;;10.20;99.90;;;;;;4964495;28;20041;-72
2021/05/11 09:30:03;;;;;;;1.85;0.52;;;10.40;99.90;;;;;;4964506;28;20447;-70
2021/05/11 09:32:44;;;;;;;1.55;0.65;;;10.50;99.90;;;;;;4964183;28;20039;-72
2021/05/11 10:49:38;;;;;;;2.60;1.50;;;11.10;99.90;;;;;;4958896;28;20058;-72
2021/05/11 10:52:14;;;;;;;4.03;1.58;;;11.10;99.90;;;;;;4961482;28;20031;-73
2021/05/11 10:54:49;;;;;;;8.95;1.98;;;11.20;99.90;;;;;;4961095;28;20142;-74
2021/05/11 10:57:43;;;;;;;4.07;1.67;;;11.10;99.90;;;;;;4960994;28;20031;-74
2021/05/11 11:00:22;;;;;;;3.13;1.70;;;11.50;99.90;;;;;;4955343;28;20067;-75
2021/05/11 11:03:06;;;;;;;4.60;1.92;;;11.50;99.90;;;;;;4962252;28;20515;-75
2021/05/11 11:05:37;;;;;;;3.92;1.35;;;11.50;99.90;;;;;;4957533;28;20062;-75
2021/05/11 11:08:03;;;;;;;2.65;1.40;;;11.50;99.90;;;;;;4961971;28;20519;-75
2021/05/11 11:10:30;;;;;;;1.67;0.80;;;11.50;99.90;;;;;;4954860;28;20058;-75
2021/05/11 11:12:56;;;;;;;2.13;0.82;;;11.20;99.90;;;;;;4970044;28;20618;-74
2021/05/11 11:15:22;;;;;;;2.58;1.00;;;11.50;99.90;;;;;;4962575;28;20037;-75
2021/05/11 11:17:52;;;;;;;1.92;1.23;;;11.60;99.90;;;;;;4962300;28;20027;-74
2021/05/11 11:20:21;;;;;;;2.53;1.13;;;12.10;99.90;;;;;;4964966;28;20043;-74
2021/05/11 11:26:03;;;;;;;2.00;0.98;;;12.50;99.90;;;;;;4962245;28;20061;-74
2021/05/11 11:28:30;;;;;;;5.30;1.50;;;12.60;99.90;;;;;;4962036;28;20027;-72
2021/05/11 11:30:56;;;;;;;3.00;1.50;;;12.50;99.90;;;;;;4960695;28;20435;-75
2021/05/11 11:33:22;;;;;;;3.15;1.75;;;13.00;99.90;;;;;;4960511;28;20034;-73
2021/05/11 11:35:47;;;;;;;2.90;1.63;;;13.20;99.90;;;;;;4961506;28;20022;-73
2021/05/11 11:38:25;;;;;;;5.32;1.67;;;13.00;99.90;;;;;;4963941;28;20158;-71
2021/05/11 11:41:02;;;;;;;3.60;1.40;;;13.00;99.90;;;;;;4963005;28;20038;-73
2021/05/11 11:43:30;;;;;;;5.60;1.75;;;12.90;99.90;;;;;;4964192;28;20037;-74
2021/05/11 11:45:56;;;;;;;3.80;1.10;;;12.90;99.90;;;;;;4955993;28;20127;-74
2021/05/11 11:48:23;;;;;;;6.00;1.30;;;12.80;99.90;;;;;;4969185;28;20488;-74
2021/05/11 11:50:53;;;;;;;1.40;0.90;;;12.70;99.90;;;;;;4963934;28;20027;-73
2021/05/11 11:53:24;;;;;;;3.45;1.25;;;12.60;99.90;;;;;;4964471;28;20158;-75
2021/05/11 11:56:25;;;;;;;4.00;1.30;;;12.70;99.90;;;;;;4956235;28;20027;-74
2021/05/11 11:58:38;;;;;;;8.75;2.08;;;12.60;99.90;;;;;;4967381;28;20109;-72
2021/05/11 12:01:16;;;;;;;6.88;2.80;;;12.80;99.90;;;;;;4960668;28;20038;-64
2021/05/11 12:03:43;;;;;;;4.53;2.60;;;13.00;99.90;;;;;;4959003;28;20122;-66
2021/05/11 12:06:10;;;;;;;4.30;1.10;;;12.80;99.90;;;;;;4958703;28;20031;-66
2021/05/11 12:08:37;;;;;;;3.35;1.40;;;13.40;99.90;;;;;;4961519;28;20084;-67
2021/05/11 12:11:08;;;;;;;2.15;1.08;;;13.70;99.90;;;;;;4961580;28;20096;-67
2021/05/11 12:13:38;;;;;;;2.05;0.93;;;14.20;99.90;;;;;;4960929;28;20118;-67
2021/05/11 12:16:17;;;;;;;4.10;1.10;;;14.30;99.90;;;;;;4958129;28;20022;-66
2021/05/11 12:19:02;;;;;;;6.53;1.23;;;14.70;99.90;;;;;;4957816;28;20405;-66
2021/05/11 12:21:30;;;;;;;2.00;1.10;;;14.60;99.90;;;;;;4955718;28;20558;-66
2021/05/11 12:24:10;;;;;;;2.88;0.85;;;14.30;99.90;;;;;;4960568;28;20028;-66
2021/05/11 12:26:36;;;;;;;2.35;1.08;;;15.00;99.90;;;;;;4960897;28;20037;-66
2021/05/11 12:29:10;;;;;;;5.40;1.23;;;15.40;99.90;;;;;;4962326;28;20066;-65
2021/05/11 12:31:39;;;;;;;4.45;1.63;;;15.50;99.90;;;;;;4955602;28;20114;-65
2021/05/11 12:34:06;;;;;;;5.28;1.55;;;16.00;99.90;;;;;;4956698;28;20028;-66
2021/05/11 12:36:47;;;;;;;5.43;1.58;;;15.70;99.90;;;;;;4961951;28;20106;-67
2021/05/11 12:39:36;;;;;;;4.50;1.65;;;16.00;99.90;;;;;;4955405;28;20064;-67
2021/05/11 12:42:18;;;;;;;7.13;1.77;;;16.00;99.90;;;;;;4958590;28;20027;-65
2021/05/11 12:44:45;;;;;;;6.90;2.08;;;15.80;99.90;;;;;;4959424;28;20037;-66
2021/05/11 12:47:13;;;;;;;4.72;1.65;;;15.00;99.90;;;;;;4959478;28;20027;-67
2021/05/11 12:49:40;;;;;;;6.38;1.10;;;14.60;99.90;;;;;;4957315;28;20023;-65
2021/05/11 12:52:08;;;;;;;3.80;1.13;;;15.20;99.90;;;;;;4958116;28;20019;-64
2021/05/11 12:54:45;;;;;;;5.30;0.85;;;16.20;99.90;;;;;;4957689;28;20063;-68
2021/05/11 13:19:59;;;;;;;8.23;1.48;;;17.60;99.90;;;;;;4950251;28;20051;-67
2021/05/11 13:22:05;;;;;;;4.93;1.33;;;17.30;99.90;;;;;;4959073;28;20563;-67
2021/05/11 13:34:57;;;;;;;6.10;1.42;;;18.10;99.90;;;;;;4963168;28;20128;-66
2021/05/11 13:37:28;;;;;;;5.50;1.40;;;18.00;99.90;;;;;;4967664;28;20415;-66
2021/05/11 13:39:55;;;;;;;4.10;1.88;;;17.70;99.90;;;;;;4964858;28;20559;-67
2021/05/11 13:42:21;;;;;;;4.72;1.00;;;16.80;99.90;;;;;;4967144;28;20026;-70
2021/05/11 13:44:49;;;;;;;5.57;1.30;;;15.70;99.90;;;;;;4960882;28;20024;-66
2021/05/11 13:47:14;;;;;;;4.32;1.30;;;15.40;99.90;;;;;;4965338;28;21330;-66
2021/05/11 13:49:41;;;;;;;3.92;1.40;;;15.30;99.90;;;;;;4957458;28;20043;-69
2021/05/11 13:52:06;;;;;;;8.15;2.10;;;16.00;99.90;;;;;;4959790;28;20034;-66
2021/05/11 13:54:32;;;;;;;2.13;0.68;;;17.20;99.90;;;;;;4956153;28;20386;-66
2021/05/11 13:57:21;;;;;;;1.75;0.70;;;17.40;99.90;;;;;;4965697;28;20526;-65
2021/05/11 14:05:01;;;;;;;3.42;1.00;;;18.20;99.90;;;;;;4963682;28;20582;-67
2021/05/11 14:07:26;;;;;;;3.70;0.98;;;17.90;99.90;;;;;;4962360;28;20055;-69
2021/05/11 14:09:52;;;;;;;5.07;1.27;;;18.70;99.90;;;;;;4955550;28;20444;-66
2021/05/11 14:12:17;;;;;;;5.07;1.02;;;19.00;99.90;;;;;;4967719;28;20047;-66
2021/05/11 14:14:43;;;;;;;3.63;0.80;;;18.80;99.90;;;;;;4971984;28;20027;-66
2021/05/11 14:17:09;;;;;;;2.50;0.90;;;16.80;99.90;;;;;;4963959;28;20018;-67
2021/05/11 14:19:35;;;;;;;4.32;1.00;;;15.90;99.90;;;;;;4975501;28;20101;-67
2021/05/11 14:22:01;;;;;;;2.10;1.00;;;15.60;99.90;;;;;;4963842;28;20029;-66
2021/05/11 14:24:27;;;;;;;5.97;1.25;;;15.50;99.90;;;;;;4960893;28;20039;-68
2021/05/11 14:26:53;;;;;;;5.03;1.02;;;14.90;99.90;;;;;;4965187;28;20053;-66
2021/05/11 14:29:18;;;;;;;4.63;1.08;;;14.60;99.90;;;;;;4960084;28;20118;-67
2021/05/11 14:31:44;;;;;;;2.65;0.98;;;14.90;99.90;;;;;;4965751;28;20050;-66
2021/05/11 14:34:10;;;;;;;3.40;1.05;;;14.80;99.90;;;;;;4959996;28;20080;-66
2021/05/11 14:36:37;;;;;;;5.03;0.85;;;14.60;99.90;;;;;;4959132;28;20484;-66
2021/05/11 14:39:05;;;;;;;1.90;0.60;;;15.00;99.90;;;;;;4961610;28;20163;-66
2021/05/11 14:41:31;;;;;;;3.83;0.95;;;15.10;99.90;;;;;;4960724;28;20492;-65
2021/05/11 14:43:57;;;;;;;1.52;0.63;;;15.20;99.90;;;;;;4961236;28;20033;-66
2021/05/11 14:46:23;;;;;;;2.42;0.90;;;14.90;99.90;;;;;;4956311;28;20102;-65
2021/05/11 14:48:50;;;;;;;2.40;0.80;;;14.70;99.90;;;;;;4957406;28;20027;-66
2021/05/11 14:51:16;;;;;;;1.75;0.65;;;15.60;99.90;;;;;;4958005;28;20094;-66
2021/05/11 14:53:42;;;;;;;2.28;0.82;;;16.30;99.90;;;;;;4961012;28;20182;-66
2021/05/11 14:56:08;;;;;;;1.77;0.55;;;17.30;99.90;;;;;;4957111;28;20037;-67
2021/05/11 14:58:35;;;;;;;2.30;0.90;;;17.20;99.90;;;;;;4958019;28;20030;-65
2021/05/11 15:01:01;;;;;;;1.23;0.57;;;18.00;99.90;;;;;;4960520;28;20034;-66
2021/05/11 15:03:27;;;;;;;1.40;0.50;;;18.20;99.90;;;;;;4957415;28;20027;-66
2021/05/11 15:05:52;;;;;;;1.05;0.40;;;18.50;99.90;;;;;;4960048;28;20430;-66
2021/05/11 15:08:18;;;;;;;1.58;0.93;;;18.60;99.90;;;;;;4954810;28;20054;-66
2021/05/11 15:10:44;;;;;;;3.30;0.70;;;18.20;99.90;;;;;;4957330;28;20035;-66
2021/05/11 15:13:11;;;;;;;2.25;0.63;;;18.30;99.90;;;;;;4960674;28;20503;-66
2021/05/11 15:15:38;;;;;;;2.83;0.70;;;18.20;99.90;;;;;;4956319;28;20110;-67
2021/05/11 15:18:05;;;;;;;2.20;0.70;;;18.80;99.90;;;;;;4969111;28;20034;-66
2021/05/11 15:20:33;;;;;;;3.25;1.00;;;18.20;99.90;;;;;;4961503;28;20645;-67
2021/05/11 15:23:00;;;;;;;2.38;0.90;;;18.30;99.90;;;;;;4960360;28;20102;-66
2021/05/11 15:25:27;;;;;;;6.40;1.30;;;18.50;99.90;;;;;;4957702;28;20034;-67
2021/05/11 15:27:54;;;;;;;2.78;1.05;;;18.30;99.90;;;;;;4955598;28;20558;-68
2021/05/11 15:30:22;;;;;;;3.22;0.90;;;18.00;99.90;;;;;;4959438;28;20503;-69
2021/05/11 15:32:53;;;;;;;3.05;0.93;;;17.80;99.90;;;;;;4956829;28;20400;-69
2021/05/11 15:35:22;;;;;;;2.50;0.90;;;18.10;99.90;;;;;;4962353;28;20038;-67
2021/05/11 15:37:53;;;;;;;2.22;1.00;;;18.30;99.90;;;;;;4961728;28;20122;-67
2021/05/11 15:40:20;;;;;;;3.80;1.15;;;18.60;99.90;;;;;;4963273;28;20565;-68
2021/05/11 15:42:46;;;;;;;4.13;1.00;;;18.20;99.90;;;;;;4958897;28;20031;-69
2021/05/11 15:45:12;;;;;;;7.18;1.00;;;17.70;99.90;;;;;;4959143;28;20523;-68
2021/05/11 15:47:38;;;;;;;3.97;1.20;;;17.70;99.90;;;;;;4961616;28;20138;-66
2021/05/11 15:50:05;;;;;;;2.60;1.40;;;18.40;99.90;;;;;;4961691;28;20035;-68
2021/05/11 15:52:31;;;;;;;5.93;1.27;;;19.00;99.90;;;;;;4963639;28;20026;-67
2021/05/11 15:54:57;;;;;;;2.72;1.02;;;18.70;99.90;;;;;;4956913;28;20038;-67
2021/05/11 15:57:23;;;;;;;3.40;1.15;;;18.20;99.90;;;;;;4961322;28;20032;-67
2021/05/11 15:59:49;;;;;;;4.22;1.35;;;17.40;99.90;;;;;;4951012;28;20070;-68
2021/05/11 16:02:14;;;;;;;2.28;1.25;;;17.70;99.90;;;;;;4967332;28;20027;-66
2021/05/11 16:04:40;;;;;;;4.78;1.02;;;17.40;99.90;;;;;;4957971;28;20034;-67
2021/05/11 16:07:06;;;;;;;1.33;1.08;;;18.20;99.90;;;;;;4960014;28;20030;-69
2021/05/11 16:09:31;;;;;;;3.33;1.20;;;18.30;99.90;;;;;;4960432;28;20034;-67
2021/05/11 16:11:57;;;;;;;5.80;1.70;;;18.50;99.90;;;;;;4965379;28;20050;-67
2021/05/11 16:14:23;;;;;;;3.75;2.58;;;18.60;99.90;;;;;;4953104;28;20027;-69
2021/05/11 16:16:49;;;;;;;3.88;1.40;;;18.70;99.90;;;;;;4962405;28;20026;-69
2021/05/11 16:19:14;;;;;;;5.18;3.25;;;17.90;99.90;;;;;;4963058;28;20054;-68
2021/05/11 16:21:40;;;;;;;5.32;2.17;;;18.00;99.90;;;;;;4944468;28;20050;-66
2021/05/11 16:24:06;;;;;;;2.78;1.70;;;18.10;99.90;;;;;;4957310;28;20106;-66
2021/05/11 16:26:32;;;;;;;3.85;2.80;;;18.20;99.90;;;;;;4956642;28;20023;-66
2021/05/11 16:28:58;;;;;;;5.40;1.33;;;18.20;99.90;;;;;;4959599;28;20423;-67
2021/05/11 16:31:24;;;;;;;2.28;1.85;;;18.10;99.90;;;;;;4963090;28;20085;-67
2021/05/11 16:33:50;;;;;;;2.20;1.48;;;18.00;99.90;;;;;;4966579;28;20039;-66
2021/05/11 16:36:16;;;;;;;2.85;1.35;;;18.00;99.90;;;;;;4959351;28;20031;-67
2021/05/11 16:38:42;;;;;;;3.60;1.38;;;18.10;99.90;;;;;;4970465;28;20029;-68
2021/05/11 16:41:08;;;;;;;6.47;1.20;;;17.80;99.90;;;;;;4965712;28;20558;-66
2021/05/11 16:43:34;;;;;;;2.55;1.08;;;17.60;99.90;;;;;;4976648;28;20031;-66
2021/05/11 16:46:03;;;;;;;2.15;1.30;;;16.80;99.90;;;;;;4971194;28;20720;-66
2021/05/11 16:48:33;;;;;;;5.00;1.30;;;16.80;99.90;;;;;;4963793;28;20118;-66
2021/05/11 16:51:00;;;;;;;2.88;1.02;;;16.50;99.90;;;;;;4959435;28;20085;-68
2021/05/11 16:53:26;;;;;;;2.72;1.00;;;16.40;99.90;;;;;;4954666;28;20035;-67
2021/05/11 16:55:52;;;;;;;5.00;1.20;;;16.70;99.90;;;;;;4957184;28;20032;-67
2021/05/11 16:58:18;;;;;;;1.88;1.10;;;16.60;99.90;;;;;;4956286;28;20038;-67
2021/05/11 17:00:44;;;;;;;3.67;1.00;;;16.80;99.90;;;;;;4952055;28;20039;-67
2021/05/11 17:03:10;;;;;;;4.15;1.20;;;16.60;99.90;;;;;;4963794;28;20036;-66
2021/05/11 17:05:39;;;;;;;2.75;1.10;;;16.50;99.90;;;;;;4959600;28;20038;-67
2021/05/11 17:08:07;;;;;;;5.97;1.20;;;16.80;99.90;;;;;;4969976;28;20046;-66
2021/05/11 17:10:35;;;;;;;3.53;1.08;;;17.00;99.90;;;;;;4966481;28;20047;-66
2021/05/11 17:13:03;;;;;;;3.15;1.40;;;16.30;99.90;;;;;;4964969;28;20432;-65
2021/05/11 17:15:30;;;;;;;6.32;1.27;;;16.40;99.90;;;;;;4958368;28;20047;-67
2021/05/11 17:17:57;;;;;;;5.50;1.42;;;16.50;99.90;;;;;;4968284;28;20018;-66
2021/05/11 17:20:27;;;;;;;5.55;1.83;;;16.50;99.90;;;;;;4962275;28;20051;-67